• Join FlightAware (Why Join?)
  • Login
  • US Flag 
01:40PM EDT


 

Airport Tracker/Info


-or-


 

Live Flight TrackerFlight Track Log ✈ N978AC ✈ 17-Apr-2014 ✈ KSQL - KVIS

Flight Track Log - Related Links

Times and Time Zones

All times are in EDT time to prevent confusion due to time zone crossing. See the N978AC flight status page for this flight to view local times or setup timezone preferences in your user account.

Time Position Orientation Groundspeed Altitude Reporting Facility
EDT Latitude Longitude Course Direction KTS MPH feet Rate Location/Type
08:34PM 37.5333 -122.2667 North 73 84 500  Level Northern Cal TRACON
08:34PM 37.5333 -122.2500 90° East 102 117 1,000 420 Climbing Northern Cal TRACON
08:35PM 37.5167 -122.2167 122° Southeast 109 125 1,300 420 Climbing Northern Cal TRACON
08:37PM 37.5000 -122.1833 122° Southeast 100 115 2,000 360 Climbing Northern Cal TRACON
08:38PM 37.4667 -122.1500 142° Southeast 123 142 2,100 120 Climbing Northern Cal TRACON
08:38PM 37.4667 -122.1333 90° East 117 135 2,300 420 Climbing Northern Cal TRACON
08:39PM 37.6419 -122.2167 North  Level FlightAware Approximate
08:39PM 37.4667 -122.1000 90° East 89 102 2,900  Level Northern Cal TRACON
08:40PM 37.5000 -122.0833 22° Northeast 106 122 3,000  Climbing Northern Cal TRACON
08:41PM 37.5167 -122.0500 58° Northeast 105 121 3,000  Level Northern Cal TRACON
08:43PM 37.5333 -122.0167 58° Northeast 107 123 3,000 120 Level Northern Cal TRACON
08:44PM 37.5500 -122.0000 38° Northeast 106 122 3,300 360 Climbing Northern Cal TRACON
08:45PM 37.5667 -121.9667 58° Northeast 99 114 3,800 360 Climbing Northern Cal TRACON
08:45PM 37.5833 -121.9500 38° Northeast 105 121 4,000 360 Climbing Northern Cal TRACON
08:47PM 37.6167 -121.9167 38° Northeast 89 102 4,600 480 Climbing Northern Cal TRACON
08:47PM 37.6333 -121.9000 38° Northeast 87 100 5,000 360 Climbing Northern Cal TRACON
08:48PM 37.6353 -121.8844 81° East 90 104 5,200 240 Climbing Oakland Center
08:49PM 37.6506 -121.8603 51° Northeast 90 104 5,500 300 Climbing Oakland Center
08:50PM 37.6667 -121.8167 65° Northeast 93 107 6,000 360 Climbing Northern Cal TRACON
08:51PM 37.6667 -121.8000 90° East 87 100 6,400 300 Climbing Northern Cal TRACON
08:53PM 37.6500 -121.7667 122° Southeast 81 93 6,700 300 Climbing Northern Cal TRACON
08:53PM 37.6500 -121.7500 90° East 78 90 7,000 240 Climbing Northern Cal TRACON
08:54PM 37.6333 -121.7167 122° Southeast 94 108 7,200  Climbing Northern Cal TRACON
08:55PM 37.6167 -121.6833 122° Southeast 100 115 7,100  Descending Northern Cal TRACON
08:56PM 37.6167 -121.6500 90° East 96 110 7,200  Climbing Northern Cal TRACON
08:57PM 37.6000 -121.6167 122° Southeast 105 121 7,100  Descending Northern Cal TRACON
08:59PM 37.5833 -121.5833 122° Southeast 97 112 7,200  Climbing Northern Cal TRACON
08:59PM 37.5833 -121.5667 90° East 98 113 7,200  Level Northern Cal TRACON
09:00PM 37.5667 -121.5333 122° Southeast 100 115 7,200  Level Northern Cal TRACON
09:01PM 37.5500 -121.5000 122° Southeast 102 117 7,200  Level Northern Cal TRACON
09:02PM 37.5333 -121.4667 122° Southeast 91 105 7,200 -60 Level Northern Cal TRACON
09:03PM 37.5333 -121.4333 90° East 91 105 7,100  Descending Northern Cal TRACON
09:05PM 37.5167 -121.4000 122° Southeast 98 113 7,200  Climbing Northern Cal TRACON
09:05PM 37.5000 -121.3833 142° Southeast 95 109 7,200  Level Northern Cal TRACON
09:06PM 37.5000 -121.3500 90° East 94 108 7,200  Level Northern Cal TRACON
09:07PM 37.4833 -121.3167 122° Southeast 98 113 7,200  Level Northern Cal TRACON
09:08PM 37.4667 -121.3000 142° Southeast 92 106 7,200  Level Northern Cal TRACON
09:10PM 37.4667 -121.2667 90° East 89 102 7,200  Level Northern Cal TRACON
09:10PM 37.4500 -121.2333 122° Southeast 90 104 7,200  Level Northern Cal TRACON
09:12PM 37.4333 -121.2000 122° Southeast 99 114 7,200  Level Northern Cal TRACON
09:12PM 37.4333 -121.1833 90° East 88 101 7,200  Level Northern Cal TRACON
09:13PM 37.4167 -121.1500 122° Southeast 95 109 7,200  Level Northern Cal TRACON
09:14PM 37.4000 -121.1167 122° Southeast 94 108 7,200  Level Northern Cal TRACON
09:15PM 37.4000 -121.1000 90° East 86 99 7,200  Level Northern Cal TRACON
09:16PM 37.3833 -121.0667 122° Southeast 100 115 7,200  Level Northern Cal TRACON
09:17PM 37.3667 -121.0333 122° Southeast 101 116 7,200  Level Northern Cal TRACON
09:19PM 37.3500 -121.0000 122° Southeast 102 117 7,200 -60 Level Northern Cal TRACON
09:20PM 37.3500 -120.9667 90° East 103 119 7,100 -60 Descending Northern Cal TRACON
09:21PM 37.3333 -120.9333 122° Southeast 100 115 7,100  Level Northern Cal TRACON
09:21PM 37.3167 -120.9000 122° Southeast 99 114 7,100  Level Northern Cal TRACON
09:22PM 37.3167 -120.8833 90° East 95 109 7,200  Climbing Northern Cal TRACON
09:23PM 37.3000 -120.8500 122° Southeast 99 114 7,200  Level Northern Cal TRACON
09:24PM 37.2833 -120.8167 122° Southeast 96 110 7,200  Level Northern Cal TRACON
09:25PM 37.2667 -120.7833 122° Southeast 101 116 7,200  Level Northern Cal TRACON
09:26PM 37.2667 -120.7500 90° East 97 112 7,200  Level Northern Cal TRACON
09:27PM 37.2500 -120.7167 122° Southeast 98 113 7,200  Level Northern Cal TRACON
09:29PM 37.2333 -120.6833 122° Southeast 96 110 7,200  Level Northern Cal TRACON
09:30PM 37.2167 -120.6667 141° Southeast 99 114 7,200  Level Northern Cal TRACON
09:30PM 37.2167 -120.6333 90° East 101 116 7,200  Level Northern Cal TRACON
09:32PM 37.2000 -120.6000 122° Southeast 100 115 7,200 -60 Level Northern Cal TRACON
09:33PM 37.1833 -120.5667 122° Southeast 101 116 7,100  Descending Northern Cal TRACON
09:34PM 37.1833 -120.5333 90° East 101 116 7,200  Climbing Northern Cal TRACON
09:34PM 37.1667 -120.5167 141° Southeast 96 110 7,200  Level Northern Cal TRACON
09:36PM 37.1500 -120.4833 122° Southeast 98 113 7,200  Level Northern Cal TRACON
09:36PM 37.1333 -120.4500 122° Southeast 97 112 7,200 -60 Level Northern Cal TRACON
09:37PM 37.1333 -120.4167 90° East 99 114 7,100 -60 Descending Northern Cal TRACON
09:38PM 37.1211 -120.3939 124° Southeast 98 113 7,100 -60 Level Oakland Center
09:39PM 37.1069 -120.3619 119° Southeast 99 114 7,000 -60 Descending Oakland Center
09:40PM 37.0961 -120.3317 114° Southeast 98 113 7,000  Level Oakland Center
09:41PM 37.0831 -120.3000 117° Southeast 98 113 7,100  Climbing Oakland Center
09:42PM 37.0681 -120.2750 127° Southeast 97 112 7,100  Level Oakland Center
09:43PM 37.0514 -120.2492 129° Southeast 98 113 7,100  Level Oakland Center
09:44PM 37.0333 -120.2192 127° Southeast 99 114 7,100 -60 Level Oakland Center
09:45PM 37.0142 -120.1892 129° Southeast 99 114 7,000  Descending Oakland Center
09:46PM 36.9972 -120.1611 127° Southeast 99 114 7,100  Climbing Oakland Center
09:47PM 36.9828 -120.1406 131° Southeast 97 112 7,100  Level Oakland Center
09:49PM 36.9650 -120.1131 129° Southeast 97 112 7,100 -60 Level Oakland Center
09:50PM 36.9425 -120.0822 132° Southeast 99 114 7,000 -60 Descending Oakland Center
09:51PM 36.9253 -120.0569 130° Southeast 99 114 7,000  Level Oakland Center
09:52PM 36.9081 -120.0300 129° Southeast 100 115 7,100  Climbing Oakland Center
09:53PM 36.8903 -120.0022 129° Southeast 99 114 7,100  Level Oakland Center
09:54PM 36.8736 -119.9750 127° Southeast 99 114 7,100  Level Oakland Center
09:55PM 36.8556 -119.9489 131° Southeast 100 115 7,100  Level Oakland Center
09:56PM 36.8378 -119.9236 131° Southeast 99 114 7,100  Level Oakland Center
09:57PM 36.8208 -119.8967 128° Southeast 99 114 7,100  Level Oakland Center
09:58PM 36.8017 -119.8722 134° Southeast 99 114 7,100  Level Oakland Center
09:59PM 36.7769 -119.8442 138° Southeast 99 114 7,100 -60 Level Oakland Center
10:00PM 36.7561 -119.8225 140° Southeast 99 114 7,000 -180 Descending Oakland Center
10:01PM 36.7350 -119.7969 136° Southeast 104 120 6,800 -300 Descending Oakland Center
10:02PM 36.7128 -119.7711 137° Southeast 105 121 6,500 -300 Descending Oakland Center
10:03PM 36.6922 -119.7444 134° Southeast 106 122 6,300 -300 Descending Oakland Center
10:04PM 36.6700 -119.7217 141° Southeast 105 121 5,900 -480 Descending Oakland Center
10:05PM 36.6444 -119.7008 147° Southeast 106 122 5,400 -480 Descending Oakland Center
10:06PM 36.6194 -119.6792 145° Southeast 108 124 5,000 -240 Descending Oakland Center
10:07PM 36.5928 -119.6553 144° Southeast 103 119 5,000  Level Oakland Center
10:08PM 36.5700 -119.6381 149° Southeast 100 115 5,000 -180 Level Oakland Center
10:09PM 36.5481 -119.6186 145° Southeast 99 114 4,700 -300 Descending Oakland Center
10:10PM 36.5244 -119.5972 144° Southeast 102 117 4,400 -300 Descending Oakland Center
10:11PM 36.5036 -119.5758 140° Southeast 102 117 4,100 -360 Descending Oakland Center
10:12PM 36.4800 -119.5536 143° Southeast 102 117 3,700 -240 Descending Oakland Center
10:13PM 36.4550 -119.5356 150° Southeast 102 117 3,700  Level Oakland Center
10:15PM 36.4378 -119.4783 149° Southeast  Level FlightAware Approximate
10:22PM 36.3167 -119.3833 147° Southeast  Level FlightAware Approximate
10:23PM 36.3186 -119.3929 263° West  Level Estimated